createdAt,value
2018-03-04T00:00:53.278Z,16
2018-03-04T00:01:53.279Z,16
2018-03-04T00:02:53.287Z,16
2018-03-04T00:03:53.282Z,16
2018-03-04T00:04:53.287Z,16
2018-03-04T00:05:53.276Z,16
2018-03-04T00:06:53.259Z,16
2018-03-04T00:07:53.265Z,16
2018-03-04T00:08:53.277Z,15.75
2018-03-04T00:09:53.301Z,15.75
2018-03-04T00:10:53.294Z,15.75
2018-03-04T00:11:53.306Z,15.75
2018-03-04T00:12:53.275Z,15.75
2018-03-04T00:13:53.274Z,16
2018-03-04T00:14:53.280Z,15.75
2018-03-04T00:15:53.280Z,15.75
2018-03-04T00:16:53.286Z,15.75
2018-03-04T00:17:53.269Z,15.75
2018-03-04T00:18:53.266Z,15.75
2018-03-04T00:19:53.278Z,15.75
2018-03-04T00:20:53.264Z,15.75
2018-03-04T00:21:53.269Z,15.75
2018-03-04T00:22:53.250Z,15.75
2018-03-04T00:23:53.284Z,15.75
2018-03-04T00:24:53.268Z,15.75
2018-03-04T00:25:53.268Z,15.75
2018-03-04T00:26:53.262Z,15.75
2018-03-04T00:27:53.297Z,15.75
2018-03-04T00:28:53.276Z,15.75
2018-03-04T00:29:53.256Z,15.75
2018-03-04T00:30:53.251Z,15.75
2018-03-04T00:31:53.251Z,15.75
2018-03-04T00:32:53.268Z,15.75
2018-03-04T00:33:53.262Z,15.75
2018-03-04T00:34:53.272Z,15.75
2018-03-04T00:35:53.270Z,15.75
2018-03-04T00:36:53.251Z,15.75
2018-03-04T00:37:53.240Z,15.75
2018-03-04T00:38:53.292Z,15.75
2018-03-04T00:39:53.273Z,15.75
2018-03-04T00:40:53.258Z,15.75
2018-03-04T00:41:53.258Z,15.75
2018-03-04T00:42:53.244Z,15.75
2018-03-04T00:43:53.282Z,15.75
2018-03-04T00:44:53.267Z,15.75
2018-03-04T00:45:53.246Z,15.75
2018-03-04T00:46:53.276Z,15.75
2018-03-04T00:47:53.247Z,15.75
2018-03-04T00:48:53.257Z,15.75
2018-03-04T00:49:53.258Z,15.75
2018-03-04T00:50:53.254Z,15.75
2018-03-04T00:51:53.253Z,15.75
2018-03-04T00:52:53.256Z,15.75
2018-03-04T00:53:53.242Z,15.75
2018-03-04T00:54:53.254Z,15.75
2018-03-04T00:55:53.264Z,15.75
2018-03-04T00:56:53.254Z,15.75
2018-03-04T00:57:53.269Z,15.75
2018-03-04T00:58:53.263Z,15.75
2018-03-04T00:59:53.238Z,15.75
2018-03-04T01:00:53.248Z,15.75
2018-03-04T01:01:53.267Z,15.75
2018-03-04T01:02:53.245Z,15.75
2018-03-04T01:03:53.280Z,15.75
2018-03-04T01:04:53.273Z,15.75
2018-03-04T01:05:53.245Z,15.75
2018-03-04T01:06:53.252Z,15.75
2018-03-04T01:07:53.364Z,15.5
2018-03-04T01:08:53.230Z,15.75
2018-03-04T01:09:53.244Z,15.5
2018-03-04T01:10:53.258Z,15.5
2018-03-04T01:11:53.243Z,15.5
2018-03-04T01:12:53.277Z,15.5
2018-03-04T01:13:53.254Z,15.5
2018-03-04T01:14:53.234Z,15.5
2018-03-04T01:15:53.233Z,15.5
2018-03-04T01:16:53.236Z,15.5
2018-03-04T01:17:53.235Z,15.5
2018-03-04T01:18:53.265Z,15.5
2018-03-04T01:19:53.261Z,15.5
2018-03-04T01:20:53.250Z,15.5
2018-03-04T01:21:53.230Z,15.5
2018-03-04T01:22:53.320Z,15.5
2018-03-04T01:23:53.264Z,15.5
2018-03-04T01:24:53.296Z,15.5
2018-03-04T01:25:53.319Z,15.5
2018-03-04T01:26:53.259Z,15.5
2018-03-04T01:27:53.246Z,15.5
2018-03-04T01:28:53.239Z,15.5
2018-03-04T01:29:53.237Z,15.5
2018-03-04T01:30:53.230Z,15.5
2018-03-04T01:31:53.241Z,15.5
2018-03-04T01:32:53.256Z,15.5
2018-03-04T01:33:53.252Z,15.5
2018-03-04T01:34:53.232Z,15.5
2018-03-04T01:35:53.250Z,15.5
2018-03-04T01:36:53.240Z,15.5
2018-03-04T01:37:53.238Z,15.5
2018-03-04T01:38:53.254Z,15.5
2018-03-04T01:39:53.246Z,15.5
2018-03-04T01:40:53.236Z,15.5
2018-03-04T01:41:53.264Z,15.5
2018-03-04T01:42:53.274Z,15.5
2018-03-04T01:43:53.240Z,15.5
2018-03-04T01:44:53.291Z,15.5
2018-03-04T01:45:53.241Z,15.5
2018-03-04T01:46:53.236Z,15.5
2018-03-04T01:47:53.232Z,15.5
2018-03-04T01:48:53.237Z,15.5
2018-03-04T01:49:53.244Z,15.5
2018-03-04T01:50:53.258Z,15.5
2018-03-04T01:51:53.255Z,15.5
2018-03-04T01:52:53.286Z,15.5
2018-03-04T01:53:53.233Z,15.5
2018-03-04T01:54:53.232Z,15.5
2018-03-04T01:55:53.240Z,15.5
2018-03-04T01:56:53.265Z,15.5
2018-03-04T01:57:53.255Z,15.5
2018-03-04T01:58:53.442Z,15.5
2018-03-04T01:59:53.272Z,15.5
2018-03-04T02:00:53.225Z,15.5
2018-03-04T02:01:53.218Z,15.5
2018-03-04T02:02:53.257Z,15.5
2018-03-04T02:03:53.230Z,15.5
2018-03-04T02:04:53.226Z,15.5
2018-03-04T02:05:53.220Z,15.5
2018-03-04T02:06:53.239Z,15.5
2018-03-04T02:07:53.502Z,15.5
2018-03-04T02:08:53.236Z,15.5
2018-03-04T02:09:53.220Z,15.5
2018-03-04T02:10:53.234Z,15.5
2018-03-04T02:11:53.246Z,15.5
2018-03-04T02:12:53.254Z,15.25
2018-03-04T02:13:53.228Z,15.25
2018-03-04T02:14:53.233Z,15.25
2018-03-04T02:15:53.230Z,15.25
2018-03-04T02:16:53.257Z,15.5
2018-03-04T02:17:53.255Z,15.25
2018-03-04T02:18:53.219Z,15.25
2018-03-04T02:19:53.210Z,15.25
2018-03-04T02:20:53.254Z,15.25
2018-03-04T02:21:53.224Z,15.25
2018-03-04T02:22:53.495Z,15.25
2018-03-04T02:23:53.227Z,15.25
2018-03-04T02:24:53.213Z,15.25
2018-03-04T02:25:53.227Z,15.25
2018-03-04T02:26:53.237Z,15.25
2018-03-04T02:27:53.232Z,15.25
2018-03-04T02:28:53.228Z,15.25
2018-03-04T02:29:53.224Z,15.25
2018-03-04T02:30:53.264Z,15.25
2018-03-04T02:31:53.242Z,15.25
2018-03-04T02:32:53.251Z,15.25
2018-03-04T02:33:53.240Z,15.25
2018-03-04T02:34:53.232Z,15.25
2018-03-04T02:35:53.229Z,15.25
2018-03-04T02:36:53.215Z,15.25
2018-03-04T02:37:53.219Z,15.25
2018-03-04T02:38:53.228Z,15.25
2018-03-04T02:39:53.215Z,15.25
2018-03-04T02:40:53.220Z,15.25
2018-03-04T02:41:53.237Z,15.25
2018-03-04T02:42:53.215Z,15.25
2018-03-04T02:43:53.230Z,15.25
2018-03-04T02:44:53.223Z,15.25
2018-03-04T02:45:53.246Z,15.25
2018-03-04T02:46:53.217Z,15.25
2018-03-04T02:47:53.240Z,15.25
2018-03-04T02:48:53.231Z,15.25
2018-03-04T02:49:53.208Z,15.25
2018-03-04T02:50:53.227Z,15.25
2018-03-04T02:51:53.214Z,15.25
2018-03-04T02:52:53.209Z,15.25
2018-03-04T02:53:53.206Z,15.25
2018-03-04T02:54:53.213Z,15.25
2018-03-04T02:55:53.238Z,15.25
2018-03-04T02:56:53.220Z,15.25
2018-03-04T02:57:53.221Z,15.25
2018-03-04T02:58:53.227Z,15.25
2018-03-04T02:59:53.240Z,15.25
2018-03-04T03:00:53.270Z,15.25
2018-03-04T03:01:53.238Z,15.25
2018-03-04T03:02:53.226Z,15.25
2018-03-04T03:03:53.220Z,15.25
2018-03-04T03:04:53.194Z,15.25
2018-03-04T03:05:53.216Z,15.25
2018-03-04T03:06:53.246Z,15.25
2018-03-04T03:07:53.478Z,15.25
2018-03-04T03:08:53.204Z,15.25
2018-03-04T03:09:53.204Z,15.25
2018-03-04T03:10:53.214Z,15.25
2018-03-04T03:11:53.212Z,15.25
2018-03-04T03:12:53.231Z,15.25
2018-03-04T03:13:53.208Z,15.25
2018-03-04T03:14:53.201Z,15.25
2018-03-04T03:15:53.473Z,15.25
2018-03-04T03:16:53.204Z,15.25
2018-03-04T03:17:53.220Z,15.25
2018-03-04T03:18:53.211Z,15.25
2018-03-04T03:19:53.205Z,15.25
2018-03-04T03:20:53.242Z,15.25
2018-03-04T03:21:53.214Z,15.25
2018-03-04T03:22:53.210Z,15.25
2018-03-04T03:23:53.225Z,15.25
2018-03-04T03:24:53.193Z,15.25
2018-03-04T03:25:53.284Z,15.25
2018-03-04T03:26:53.341Z,15.25
2018-03-04T03:27:53.193Z,15.25
2018-03-04T03:28:53.187Z,15.25
2018-03-04T03:29:53.190Z,15.25
2018-03-04T03:30:53.403Z,15
2018-03-04T03:31:53.205Z,15
2018-03-04T03:32:53.209Z,15
2018-03-04T03:33:53.183Z,15.25
2018-03-04T03:34:55.192Z,15.25
2018-03-04T03:35:53.203Z,15
2018-03-04T03:36:53.211Z,15.25
2018-03-04T03:37:53.194Z,15
2018-03-04T03:38:53.189Z,15
2018-03-04T03:39:53.188Z,15
2018-03-04T03:40:53.193Z,15
2018-03-04T03:41:53.462Z,15
2018-03-04T03:42:53.197Z,15
2018-03-04T03:43:53.200Z,15
2018-03-04T03:44:53.208Z,15
2018-03-04T03:45:53.188Z,15
2018-03-04T03:46:53.359Z,15
2018-03-04T03:47:53.173Z,15
2018-03-04T03:48:53.185Z,15
2018-03-04T03:49:53.193Z,15
2018-03-04T03:50:53.197Z,15
2018-03-04T03:51:53.207Z,15
2018-03-04T03:52:53.196Z,15
2018-03-04T03:53:53.192Z,15
2018-03-04T03:54:53.168Z,15
2018-03-04T03:55:53.191Z,15
2018-03-04T03:56:53.219Z,15
2018-03-04T03:57:53.196Z,15
2018-03-04T03:58:53.190Z,15
2018-03-04T03:59:53.193Z,15
2018-03-04T04:00:53.187Z,15
2018-03-04T04:01:53.250Z,15
2018-03-04T04:02:53.206Z,15
2018-03-04T04:03:53.206Z,15
2018-03-04T04:04:53.208Z,15
2018-03-04T04:05:53.201Z,15
2018-03-04T04:06:53.180Z,15
2018-03-04T04:07:53.212Z,15
2018-03-04T04:08:53.186Z,15
2018-03-04T04:09:53.191Z,15
2018-03-04T04:10:53.220Z,15
2018-03-04T04:11:53.168Z,15
2018-03-04T04:12:59.289Z,15
2018-03-04T04:13:53.184Z,15
2018-03-04T04:14:53.180Z,15
2018-03-04T04:15:53.194Z,15
2018-03-04T04:16:53.204Z,15
2018-03-04T04:17:53.196Z,15
2018-03-04T04:18:53.206Z,15
2018-03-04T04:19:53.185Z,15
2018-03-04T04:20:53.200Z,15
2018-03-04T04:21:53.196Z,15
2018-03-04T04:22:53.178Z,15
2018-03-04T04:23:53.184Z,15
2018-03-04T04:24:53.175Z,15
2018-03-04T04:25:53.215Z,15
2018-03-04T04:26:53.194Z,15
2018-03-04T04:27:53.173Z,15
2018-03-04T04:28:53.193Z,15
2018-03-04T04:29:53.193Z,15
2018-03-04T04:30:53.187Z,15
2018-03-04T04:31:53.171Z,15
2018-03-04T04:32:53.190Z,15
2018-03-04T04:33:53.171Z,15
2018-03-04T04:34:53.187Z,15
2018-03-04T04:35:53.193Z,15
2018-03-04T04:36:53.181Z,15
2018-03-04T04:37:53.172Z,15
2018-03-04T04:38:53.190Z,15
2018-03-04T04:39:53.173Z,15
2018-03-04T04:40:53.171Z,15
2018-03-04T04:41:53.182Z,15
2018-03-04T04:42:53.182Z,15
2018-03-04T04:43:53.184Z,15
2018-03-04T04:44:53.168Z,15
2018-03-04T04:45:53.161Z,15
2018-03-04T04:46:53.175Z,15
2018-03-04T04:47:53.154Z,15
2018-03-04T04:48:53.176Z,15
2018-03-04T04:49:53.170Z,15
2018-03-04T04:50:53.171Z,15
2018-03-04T04:51:53.156Z,15
2018-03-04T04:52:53.228Z,15
2018-03-04T04:53:53.350Z,15
2018-03-04T04:54:53.164Z,15
2018-03-04T04:55:53.166Z,15
2018-03-04T04:56:53.177Z,15
2018-03-04T04:57:53.164Z,15
2018-03-04T04:58:53.190Z,15
2018-03-04T04:59:53.156Z,15
2018-03-04T05:00:53.169Z,15
2018-03-04T05:01:53.174Z,15
2018-03-04T05:02:53.193Z,15
2018-03-04T05:03:53.186Z,15
2018-03-04T05:04:53.167Z,15
2018-03-04T05:05:53.205Z,15
2018-03-04T05:06:53.156Z,15
2018-03-04T05:07:53.150Z,15
2018-03-04T05:08:53.150Z,15
2018-03-04T05:09:53.168Z,15
2018-03-04T05:10:53.167Z,15
2018-03-04T05:11:53.158Z,15
2018-03-04T05:12:53.189Z,15
2018-03-04T05:13:53.152Z,15
2018-03-04T05:14:53.154Z,15
2018-03-04T05:15:53.157Z,15
2018-03-04T05:16:53.155Z,15
2018-03-04T05:17:53.199Z,15
2018-03-04T05:18:53.164Z,15
2018-03-04T05:19:53.167Z,15
2018-03-04T05:20:53.194Z,15
2018-03-04T05:21:53.158Z,15
2018-03-04T05:22:53.164Z,15
2018-03-04T05:23:53.152Z,15
2018-03-04T05:24:53.152Z,15
2018-03-04T05:25:53.186Z,15
2018-03-04T05:26:53.258Z,15
2018-03-04T05:27:53.245Z,15
2018-03-04T05:28:53.153Z,15
2018-03-04T05:29:53.157Z,15
2018-03-04T05:30:53.474Z,15
2018-03-04T05:31:53.172Z,15
2018-03-04T05:32:53.157Z,15.25
2018-03-04T05:33:53.141Z,15.25
2018-03-04T05:34:53.153Z,15.25
2018-03-04T05:35:53.176Z,15.25
2018-03-04T05:36:53.151Z,15.25
2018-03-04T05:37:53.154Z,15.25
2018-03-04T05:38:53.151Z,15.25
2018-03-04T05:39:53.134Z,15.25
2018-03-04T05:40:53.149Z,15.25
2018-03-04T05:41:53.189Z,15.25
2018-03-04T05:42:53.164Z,15.25
2018-03-04T05:43:53.148Z,15.25
2018-03-04T05:44:53.158Z,15.25
2018-03-04T05:45:53.164Z,15.25
2018-03-04T05:46:53.176Z,15.25
2018-03-04T05:47:53.150Z,15.25
2018-03-04T05:48:53.146Z,15.25
2018-03-04T05:49:53.144Z,15.25
2018-03-04T05:50:53.149Z,15.25
2018-03-04T05:51:53.179Z,15.5
2018-03-04T05:52:53.147Z,15.5
2018-03-04T05:53:53.152Z,15.5
2018-03-04T05:54:53.146Z,15.5
2018-03-04T05:55:53.140Z,15.5
2018-03-04T05:56:53.411Z,15.5
2018-03-04T05:57:53.146Z,15.5
2018-03-04T05:58:53.146Z,15.5
2018-03-04T05:59:53.147Z,15.5
2018-03-04T06:00:53.140Z,15.5
2018-03-04T06:01:53.165Z,15.5
2018-03-04T06:02:53.166Z,15.5
2018-03-04T06:03:53.162Z,15.5
2018-03-04T06:04:53.145Z,15.5
2018-03-04T06:05:53.133Z,15.5
2018-03-04T06:06:53.167Z,15.5
2018-03-04T06:07:53.164Z,15.5
2018-03-04T06:08:53.185Z,15.5
2018-03-04T06:09:53.134Z,15.5
2018-03-04T06:10:53.169Z,15.5
2018-03-04T06:11:53.156Z,15.5
2018-03-04T06:12:53.135Z,15.5
2018-03-04T06:13:53.144Z,15.5
2018-03-04T06:14:53.128Z,15.75
2018-03-04T06:15:53.136Z,15.75
2018-03-04T06:16:53.404Z,15.75
2018-03-04T06:17:53.151Z,15.75
2018-03-04T06:18:53.125Z,15.75
2018-03-04T06:19:53.145Z,15.75
2018-03-04T06:20:53.145Z,15.75
2018-03-04T06:21:53.147Z,15.75
2018-03-04T06:22:53.134Z,15.75
2018-03-04T06:23:53.144Z,15.75
2018-03-04T06:24:53.130Z,15.75
2018-03-04T06:25:53.158Z,15.75
2018-03-04T06:26:53.141Z,15.75
2018-03-04T06:27:53.123Z,15.75
2018-03-04T06:28:53.128Z,15.75
2018-03-04T06:29:53.124Z,15.75
2018-03-04T06:30:53.409Z,15.75
2018-03-04T06:31:53.135Z,15.75
2018-03-04T06:32:53.130Z,15.75
2018-03-04T06:33:53.136Z,15.75
2018-03-04T06:34:53.140Z,15.75
2018-03-04T06:35:53.155Z,15.75
2018-03-04T06:36:53.135Z,15.75
2018-03-04T06:37:53.129Z,15.75
2018-03-04T06:38:53.113Z,15.75
2018-03-04T06:39:53.133Z,15.75
2018-03-04T06:40:53.129Z,15.75
2018-03-04T06:41:53.141Z,15.75
2018-03-04T06:42:53.148Z,15.75
2018-03-04T06:43:53.120Z,16
2018-03-04T06:44:53.176Z,16
2018-03-04T06:45:53.186Z,16
2018-03-04T06:46:53.134Z,16
2018-03-04T06:47:53.144Z,16
2018-03-04T06:48:53.138Z,16
2018-03-04T06:49:53.156Z,16
2018-03-04T06:50:53.130Z,16
2018-03-04T06:51:53.125Z,16
2018-03-04T06:52:53.137Z,16
2018-03-04T06:53:53.128Z,16
2018-03-04T06:54:53.125Z,16
2018-03-04T06:55:53.134Z,16
2018-03-04T06:56:53.152Z,16
2018-03-04T06:57:53.231Z,16
2018-03-04T06:58:53.137Z,16
2018-03-04T06:59:53.142Z,16
2018-03-04T07:00:53.159Z,16
2018-03-04T07:01:53.119Z,16
2018-03-04T07:02:53.138Z,16
2018-03-04T07:03:53.119Z,16
2018-03-04T07:04:53.200Z,16
2018-03-04T07:05:53.125Z,16
2018-03-04T07:06:53.116Z,16
2018-03-04T07:07:53.136Z,16
2018-03-04T07:08:53.159Z,16
2018-03-04T07:09:53.144Z,16
2018-03-04T07:10:53.117Z,16
2018-03-04T07:11:53.123Z,16
2018-03-04T07:12:53.120Z,16
2018-03-04T07:13:53.138Z,16
2018-03-04T07:14:53.126Z,16
2018-03-04T07:15:53.136Z,16
2018-03-04T07:16:53.195Z,16
2018-03-04T07:17:53.129Z,16
2018-03-04T07:18:53.135Z,16
2018-03-04T07:19:53.144Z,16
2018-03-04T07:20:53.101Z,16
2018-03-04T07:21:53.111Z,16.25
2018-03-04T07:22:53.164Z,16.25
2018-03-04T07:23:53.113Z,16.25
2018-03-04T07:24:53.154Z,16.25
2018-03-04T07:25:53.122Z,16.25
2018-03-04T07:26:53.166Z,16.25
2018-03-04T07:27:53.260Z,16.25
2018-03-04T07:28:53.217Z,16.25
2018-03-04T07:29:53.390Z,16.25
2018-03-04T07:30:53.115Z,16.25
2018-03-04T07:31:53.110Z,16.25
2018-03-04T07:32:53.127Z,16.25
2018-03-04T07:33:53.122Z,16.25
2018-03-04T07:34:53.157Z,16.25
2018-03-04T07:35:53.122Z,16.25
2018-03-04T07:36:53.112Z,16.25
2018-03-04T07:37:53.107Z,16.25
2018-03-04T07:38:53.137Z,16.25
2018-03-04T07:39:53.381Z,16.25
2018-03-04T07:40:53.122Z,16.25
2018-03-04T07:41:53.101Z,16.25
2018-03-04T07:42:53.109Z,16.25
2018-03-04T07:43:53.110Z,16.25
2018-03-04T07:44:53.152Z,16.25
2018-03-04T07:45:53.111Z,16.25
2018-03-04T07:46:53.113Z,16.25
2018-03-04T07:47:53.109Z,16.25
2018-03-04T07:48:53.125Z,16.25
2018-03-04T07:49:53.137Z,16.25
2018-03-04T07:50:53.114Z,16.25
2018-03-04T07:51:53.161Z,16.25
2018-03-04T07:52:53.114Z,16.25
2018-03-04T07:53:53.102Z,16.25
2018-03-04T07:54:53.123Z,16.25
2018-03-04T07:55:53.094Z,16.25
2018-03-04T07:56:53.116Z,16.25
2018-03-04T07:57:53.118Z,16.25
2018-03-04T07:58:53.090Z,16.25
2018-03-04T07:59:53.122Z,16.25
2018-03-04T08:00:53.112Z,16.25
2018-03-04T08:01:53.116Z,16.25
2018-03-04T08:02:53.117Z,16.25
2018-03-04T08:03:53.110Z,16.25
2018-03-04T08:04:53.120Z,16.25
2018-03-04T08:05:53.109Z,16.25
2018-03-04T08:06:53.142Z,16.25
2018-03-04T08:07:53.105Z,16.25
2018-03-04T08:08:53.105Z,16.25
2018-03-04T08:09:53.133Z,16.25
2018-03-04T08:10:53.108Z,16.5
2018-03-04T08:11:53.115Z,16.5
2018-03-04T08:12:53.112Z,16.5
2018-03-04T08:13:53.103Z,16.5
2018-03-04T08:14:53.094Z,16.5
2018-03-04T08:15:53.096Z,16.5
2018-03-04T08:16:53.156Z,16.5
2018-03-04T08:17:53.102Z,16.5
2018-03-04T08:18:53.109Z,16.5
2018-03-04T08:19:53.102Z,16.5
2018-03-04T08:20:53.088Z,16.5
2018-03-04T08:21:53.116Z,16.5
2018-03-04T08:22:53.107Z,16.5
2018-03-04T08:23:53.129Z,16.5
2018-03-04T08:24:53.092Z,16.5
2018-03-04T08:25:53.095Z,16.5
2018-03-04T08:26:53.084Z,16.5
2018-03-04T08:27:53.099Z,16.5
2018-03-04T08:28:53.121Z,16.5
2018-03-04T08:29:53.084Z,16.5
2018-03-04T08:30:53.093Z,16.5
2018-03-04T08:31:53.119Z,16.5
2018-03-04T08:32:53.097Z,16.5
2018-03-04T08:33:53.370Z,16.5
2018-03-04T08:34:53.090Z,16.5
2018-03-04T08:35:53.108Z,16.5
2018-03-04T08:36:53.093Z,16.5
2018-03-04T08:37:53.086Z,16.5
2018-03-04T08:38:53.106Z,16.5
2018-03-04T08:39:53.083Z,16.5
2018-03-04T08:40:53.089Z,16.5
2018-03-04T08:41:53.087Z,16.5
2018-03-04T08:42:53.089Z,16.5
2018-03-04T08:43:53.112Z,16.5
2018-03-04T08:44:53.090Z,16.5
2018-03-04T08:45:53.094Z,16.5
2018-03-04T08:46:53.091Z,16.5
2018-03-04T08:47:53.163Z,16.5
2018-03-04T08:48:53.075Z,16.5
2018-03-04T08:49:53.109Z,16.5
2018-03-04T08:50:53.113Z,16.5
2018-03-04T08:51:53.092Z,16.5
2018-03-04T08:52:53.087Z,16.5
2018-03-04T08:53:53.103Z,16.5
2018-03-04T08:54:53.087Z,16.5
2018-03-04T08:55:53.084Z,16.5
2018-03-04T08:56:53.093Z,16.5
2018-03-04T08:57:53.122Z,16.5
2018-03-04T08:58:53.074Z,16.5
2018-03-04T08:59:53.092Z,16.5
2018-03-04T09:00:53.089Z,16.5
2018-03-04T09:01:53.096Z,16.5
2018-03-04T09:02:53.107Z,16.5
2018-03-04T09:03:53.109Z,16.5
2018-03-04T09:04:53.090Z,16.5
2018-03-04T09:05:53.082Z,16.5
2018-03-04T09:06:53.074Z,16.5
2018-03-04T09:07:53.072Z,16.5
2018-03-04T09:08:53.084Z,16.5
2018-03-04T09:09:53.085Z,16.5
2018-03-04T09:10:53.095Z,16.5
2018-03-04T09:11:53.082Z,16.5
2018-03-04T09:12:53.074Z,16.5
2018-03-04T09:13:53.074Z,16.5
2018-03-04T09:14:53.354Z,16.5
2018-03-04T09:15:53.087Z,16.5
2018-03-04T09:16:53.086Z,16.5
2018-03-04T09:17:53.067Z,16.5
2018-03-04T09:18:53.095Z,16.5
2018-03-04T09:19:53.312Z,16.5
2018-03-04T09:20:53.335Z,16.5
2018-03-04T09:21:53.080Z,16.5
2018-03-04T09:22:53.061Z,16.5
2018-03-04T09:23:53.075Z,16.5
2018-03-04T09:24:53.091Z,16.5
2018-03-04T09:25:53.351Z,16.5
2018-03-04T09:26:53.071Z,16.5
2018-03-04T09:27:53.067Z,16.5
2018-03-04T09:28:53.173Z,16.5
2018-03-04T09:29:53.166Z,16.5
2018-03-04T09:30:53.098Z,16.5
2018-03-04T09:31:53.074Z,16.5
2018-03-04T09:32:53.057Z,16.5
2018-03-04T09:33:53.065Z,16.75
2018-03-04T09:34:53.065Z,16.75
2018-03-04T09:35:53.091Z,16.5
2018-03-04T09:36:53.069Z,16.75
2018-03-04T09:37:53.048Z,16.75
2018-03-04T09:38:53.057Z,16.75
2018-03-04T09:39:53.086Z,16.75
2018-03-04T09:40:53.077Z,16.75
2018-03-04T09:41:53.088Z,16.75
2018-03-04T09:42:53.082Z,16.75
2018-03-04T09:43:53.065Z,16.75
2018-03-04T09:44:53.059Z,16.75
2018-03-04T09:45:53.094Z,16.75
2018-03-04T09:46:53.087Z,16.75
2018-03-04T09:47:53.097Z,16.75
2018-03-04T09:48:53.076Z,16.75
2018-03-04T09:49:53.077Z,16.75
2018-03-04T09:50:53.072Z,16.75
2018-03-04T09:51:53.089Z,16.75
2018-03-04T09:52:53.108Z,16.75
2018-03-04T09:53:53.079Z,16.75
2018-03-04T09:54:53.053Z,16.75
2018-03-04T09:55:53.063Z,16.75
2018-03-04T09:56:53.071Z,16.75
2018-03-04T09:57:53.116Z,16.75
2018-03-04T09:58:53.080Z,16.75
2018-03-04T09:59:53.054Z,16.75
2018-03-04T10:00:53.096Z,16.75
2018-03-04T10:01:53.067Z,16.75
2018-03-04T10:02:53.102Z,16.75
2018-03-04T10:03:53.087Z,16.75
2018-03-04T10:04:53.082Z,16.75
2018-03-04T10:05:53.069Z,16.75
2018-03-04T10:06:53.080Z,16.75
2018-03-04T10:07:53.107Z,16.75
2018-03-04T10:08:53.099Z,16.75
2018-03-04T10:09:53.095Z,16.75
2018-03-04T10:10:53.060Z,16.75
2018-03-04T10:11:53.062Z,16.75
2018-03-04T10:12:53.113Z,16.75
2018-03-04T10:13:53.086Z,16.75
2018-03-04T10:14:53.156Z,16.75
2018-03-04T10:15:53.070Z,16.75
2018-03-04T10:16:53.058Z,16.75
2018-03-04T10:17:53.062Z,16.75
2018-03-04T10:18:53.114Z,16.75
2018-03-04T10:19:53.087Z,16.75
2018-03-04T10:20:53.062Z,16.75
2018-03-04T10:21:53.095Z,16.75
2018-03-04T10:22:53.066Z,16.75
2018-03-04T10:23:53.048Z,16.75
2018-03-04T10:24:53.073Z,16.75
2018-03-04T10:25:53.073Z,16.75
2018-03-04T10:26:53.043Z,16.75
2018-03-04T10:27:53.064Z,16.75
2018-03-04T10:28:53.066Z,16.75
2018-03-04T10:29:53.101Z,16.75
2018-03-04T10:30:53.046Z,16.75
2018-03-04T10:31:53.049Z,16.75
2018-03-04T10:32:53.103Z,16.75
2018-03-04T10:33:53.064Z,17
2018-03-04T10:34:53.084Z,17
2018-03-04T10:35:53.071Z,16.75
2018-03-04T10:36:53.120Z,16.75
2018-03-04T10:37:53.182Z,17
2018-03-04T10:38:53.078Z,16.75
2018-03-04T10:39:53.054Z,17
2018-03-04T10:40:53.053Z,17
2018-03-04T10:41:53.058Z,17
2018-03-04T10:42:53.034Z,17
2018-03-04T10:43:53.043Z,17
2018-03-04T10:44:53.156Z,17
2018-03-04T10:45:53.070Z,17
2018-03-04T10:46:53.052Z,17
2018-03-04T10:47:30.495Z,17
2018-03-04T10:47:42.299Z,17
2018-03-04T10:48:42.258Z,17.25
2018-03-04T10:49:42.307Z,17.25
2018-03-04T10:50:42.268Z,17.25
2018-03-04T10:51:42.248Z,17.5
2018-03-04T10:52:42.236Z,17.5
2018-03-04T10:53:42.250Z,17.5
2018-03-04T10:54:42.254Z,17.5
2018-03-04T10:55:42.312Z,17.5
2018-03-04T10:56:42.241Z,17.5
2018-03-04T10:57:42.248Z,17.5
2018-03-04T10:58:42.409Z,17.5
2018-03-04T10:59:42.251Z,17.5
2018-03-04T11:00:42.262Z,17.5
2018-03-04T11:01:42.265Z,17.5
2018-03-04T11:02:42.270Z,17.5
2018-03-04T11:03:42.256Z,17.5
2018-03-04T11:04:42.239Z,17.5
2018-03-04T11:05:42.254Z,17.5
2018-03-04T11:06:42.246Z,17.5
2018-03-04T11:07:42.256Z,17.75
2018-03-04T11:08:42.245Z,17.75
2018-03-04T11:09:42.435Z,17.75
2018-03-04T11:10:42.253Z,17.75
2018-03-04T11:11:42.289Z,17.75
2018-03-04T11:12:42.245Z,17.75
2018-03-04T11:13:42.245Z,17.75
2018-03-04T11:14:42.266Z,17.75
2018-03-04T11:15:42.246Z,17.75
2018-03-04T11:16:42.252Z,17.75
2018-03-04T11:17:48.251Z,17.75
2018-03-04T11:18:48.211Z,17.75
2018-03-04T11:19:48.236Z,17.75
2018-03-04T11:20:48.249Z,17.75
2018-03-04T11:21:48.288Z,17.75
2018-03-04T11:22:48.215Z,18
2018-03-04T11:23:48.226Z,17.75
2018-03-04T11:24:44.461Z,18
2018-03-04T11:25:44.445Z,18
2018-03-04T11:26:44.487Z,18
2018-03-04T11:27:44.454Z,18
2018-03-04T11:28:44.819Z,18
2018-03-04T11:31:17.351Z,18.25
2018-03-04T11:32:17.294Z,18
2018-03-04T11:33:17.330Z,18
2018-03-04T11:34:17.713Z,17.75
2018-03-04T11:35:17.348Z,17.75
2018-03-04T11:36:17.298Z,17.75
2018-03-04T11:37:17.724Z,17.75
2018-03-04T11:38:17.718Z,17.75
2018-03-04T11:39:17.366Z,17.75
2018-03-04T11:40:17.346Z,17.75
2018-03-04T11:41:17.740Z,17.75
2018-03-04T11:42:17.313Z,17.75
2018-03-04T11:43:17.748Z,17.75
2018-03-04T11:44:17.358Z,17.75
2018-03-04T11:45:17.294Z,17.75
2018-03-04T11:46:17.348Z,17.75
2018-03-04T11:47:17.415Z,17.75
2018-03-04T11:48:17.398Z,17.75
2018-03-04T11:49:17.535Z,17.75
2018-03-04T11:50:17.326Z,17.75
2018-03-04T11:51:17.408Z,17.75
2018-03-04T11:52:17.493Z,17.75
2018-03-04T11:53:17.143Z,17.75
2018-03-04T11:54:17.102Z,17.75
2018-03-04T11:55:17.141Z,17.75
2018-03-04T11:56:17.167Z,17.75
2018-03-04T11:57:17.194Z,17.75
2018-03-04T11:58:17.260Z,17.75
2018-03-04T11:59:17.094Z,17.75
2018-03-04T12:00:17.128Z,18
2018-03-04T12:01:17.151Z,18
2018-03-04T12:02:17.104Z,18
2018-03-04T12:03:17.079Z,18
2018-03-04T12:04:17.116Z,18
2018-03-04T12:05:17.080Z,18
2018-03-04T12:06:17.060Z,18
2018-03-04T12:07:17.056Z,18
2018-03-04T12:08:17.081Z,18
2018-03-04T12:09:17.695Z,18
2018-03-04T12:10:17.094Z,18
2018-03-04T12:11:17.068Z,18
2018-03-04T12:12:17.053Z,18
2018-03-04T12:13:17.080Z,18
2018-03-04T12:14:17.593Z,18
2018-03-04T12:15:17.213Z,18
2018-03-04T12:16:17.153Z,18
2018-03-04T12:17:17.091Z,18
2018-03-04T12:18:17.089Z,18
2018-03-04T12:19:17.222Z,18
2018-03-04T12:20:17.074Z,18
2018-03-04T12:21:17.071Z,17.75
2018-03-04T12:22:17.074Z,18
2018-03-04T12:23:17.055Z,18
2018-03-04T12:24:17.037Z,18
2018-03-04T12:25:17.109Z,18
2018-03-04T12:26:17.123Z,18
2018-03-04T12:27:17.085Z,18
2018-03-04T12:28:17.048Z,18
2018-03-04T12:29:17.072Z,18
2018-03-04T12:30:17.039Z,18
2018-03-04T12:31:17.329Z,18
2018-03-04T12:32:17.039Z,18
2018-03-04T12:33:17.204Z,18
2018-03-04T12:34:17.052Z,18
2018-03-04T12:35:17.085Z,18
2018-03-04T12:36:17.076Z,18
2018-03-04T12:37:17.044Z,18
2018-03-04T12:38:17.082Z,18
2018-03-04T12:39:17.056Z,18
2018-03-04T12:40:17.033Z,18
2018-03-04T12:41:17.053Z,18
2018-03-04T12:42:17.067Z,18
2018-03-04T12:43:17.101Z,18
2018-03-04T12:44:17.049Z,18
2018-03-04T12:45:17.050Z,18
2018-03-04T12:46:17.057Z,18
2018-03-04T12:47:17.052Z,18
2018-03-04T12:48:17.024Z,18
2018-03-04T12:49:17.038Z,18
2018-03-04T12:50:17.041Z,18
2018-03-04T12:51:17.038Z,18
2018-03-04T12:52:17.081Z,18
2018-03-04T12:53:17.051Z,18
2018-03-04T12:54:17.025Z,18
2018-03-04T12:55:17.032Z,17.75
2018-03-04T12:56:17.363Z,18
2018-03-04T12:57:17.252Z,17.75
2018-03-04T12:58:17.055Z,17.75
2018-03-04T12:59:17.171Z,18
2018-03-04T13:00:17.025Z,18
2018-03-04T13:01:17.209Z,17.75
2018-03-04T13:02:17.062Z,17.75
2018-03-04T13:03:17.105Z,17.75
2018-03-04T13:04:17.035Z,17.75
2018-03-04T13:05:17.312Z,17.75
2018-03-04T13:06:17.041Z,17.75
2018-03-04T13:07:17.037Z,17.75
2018-03-04T13:08:17.022Z,17.75
2018-03-04T13:09:17.025Z,17.75
2018-03-04T13:10:17.070Z,17.75
2018-03-04T13:11:17.038Z,17.75
2018-03-04T13:12:17.040Z,17.75
2018-03-04T13:13:17.109Z,17.75
2018-03-04T13:14:17.234Z,17.75
2018-03-04T13:15:17.058Z,17.75
2018-03-04T13:16:17.037Z,17.75
2018-03-04T13:17:17.834Z,18
2018-03-04T13:18:17.244Z,17.75
2018-03-04T13:19:17.122Z,17.75
2018-03-04T13:20:17.416Z,17.75
2018-03-04T13:21:17.037Z,17.75
2018-03-04T13:22:17.153Z,17.75
2018-03-04T13:23:17.041Z,18